Time;durP1;ratioP1;P1;durP2;ratioP2;P2;SDS_P1;SDS_P2;PMS_P1;PMS_P2;Temp;Humidity;BMP_temperature;BMP_pressure;BME280_temperature;BME280_humidity;BME280_pressure;Samples;Min_cycle;Max_cycle;Signal;HPM_P1;HPM_P2
2021/06/09 00:02:20;;;;;;;;;18.33;16.33;;;;;25.56;43.37;101739.44;5020905;28;45949;-50
2021/06/09 00:04:45;;;;;;;;;17.00;17.00;;;;;25.56;43.44;101744.75;5021623;28;56185;-52
2021/06/09 00:07:11;;;;;;;;;20.50;20.00;;;;;25.56;43.36;101747.41;5022157;28;45231;-53
2021/06/09 00:09:37;;;;;;;;;15.67;15.67;;;;;25.55;43.29;101742.19;5019913;28;65231;-53
2021/06/09 00:12:03;;;;;;;;;19.00;18.67;;;;;25.55;43.65;101745.69;5021895;28;45366;-50
2021/06/09 00:14:29;;;;;;;;;19.33;17.33;;;;;25.56;43.21;101733.28;5021951;28;45334;-52
2021/06/09 00:16:54;;;;;;;;;16.67;16.33;;;;;25.55;43.15;101744.84;5021096;28;45191;-53
2021/06/09 00:19:20;;;;;;;;;18.33;18.33;;;;;25.55;43.40;101747.50;5021821;28;45325;-54
2021/06/09 00:21:48;;;;;;;;;18.00;16.00;;;;;25.55;43.70;101745.69;5020453;28;45318;-52
2021/06/09 00:24:15;;;;;;;;;16.00;15.00;;;;;25.55;43.48;101739.53;5022213;28;45247;-52
2021/06/09 00:26:40;;;;;;;;;18.67;18.67;;;;;25.54;43.48;101741.31;5021958;28;45472;-53
2021/06/09 00:29:06;;;;;;;;;17.00;17.00;;;;;25.55;43.43;101744.84;5018430;28;55889;-57
2021/06/09 00:31:32;;;;;;;;;16.00;16.00;;;;;25.54;43.35;101741.31;5011140;28;45280;-55
2021/06/09 00:33:57;;;;;;;;;15.67;15.67;;;;;25.54;43.33;101738.66;5022011;28;45233;-55
2021/06/09 00:36:22;;;;;;;;;19.00;18.00;;;;;25.54;43.40;101743.97;5024597;28;45485;-54
2021/06/09 00:38:48;;;;;;;;;17.67;15.33;;;;;25.54;43.56;101743.13;5008631;28;53510;-54
2021/06/09 00:41:13;;;;;;;;;17.33;15.33;;;;;25.53;43.37;101742.25;5028238;28;47776;-53
2021/06/09 00:43:39;;;;;;;;;18.00;17.00;;;;;25.53;43.54;101736.94;5028380;28;45587;-54
2021/06/09 00:46:09;;;;;;;;;16.67;14.67;;;;;25.54;43.39;101732.50;5027980;28;55342;-53
2021/06/09 00:48:37;;;;;;;;;11.33;10.00;;;;;25.53;43.54;101731.63;5028090;28;45978;-55
2021/06/09 00:51:05;;;;;;;;;17.00;16.00;;;;;25.52;43.33;101718.44;5027992;28;45481;-52
2021/06/09 00:53:35;;;;;;;;;17.00;17.00;;;;;25.52;43.36;101724.59;5028177;28;45442;-54
2021/06/09 00:56:08;;;;;;;;;16.00;15.00;;;;;25.54;43.77;101727.19;5027456;28;45265;-54
2021/06/09 00:58:34;;;;;;;;;15.33;15.33;;;;;25.53;43.45;101725.47;5026682;28;48483;-53
2021/06/09 01:01:00;;;;;;;;;16.00;15.33;;;;;25.52;43.40;101727.25;5028193;28;45335;-54
2021/06/09 01:03:26;;;;;;;;;16.00;15.67;;;;;25.52;43.18;101719.28;5028245;28;45687;-54
2021/06/09 01:05:52;;;;;;;;;14.67;13.33;;;;;25.52;43.38;101721.94;5026844;28;45198;-52
2021/06/09 01:08:17;;;;;;;;;14.67;14.67;;;;;25.52;43.18;101718.44;5027771;28;46082;-53
2021/06/09 01:10:45;;;;;;;;;16.67;15.33;;;;;25.52;43.38;101735.22;5016298;28;45227;-53
2021/06/09 01:13:11;;;;;;;;;18.67;16.67;;;;;25.52;43.41;101726.41;5026480;28;45338;-52
2021/06/09 01:15:37;;;;;;;;;20.00;14.67;;;;;25.51;43.31;101722.88;5028016;28;45363;-53
2021/06/09 01:18:04;;;;;;;;;13.33;13.33;;;;;25.50;43.64;101721.13;5026994;28;45512;-54
2021/06/09 01:20:30;;;;;;;;;15.33;13.67;;;;;25.51;43.55;101714.03;5027565;28;45401;-52
2021/06/09 01:22:56;;;;;;;;;15.00;15.00;;;;;25.50;43.67;101717.63;5027804;28;45192;-53
2021/06/09 01:25:22;;;;;;;;;14.33;14.33;;;;;25.49;43.57;101716.75;5028089;28;45405;-53
2021/06/09 01:27:49;;;;;;;;;14.00;14.00;;;;;25.49;43.70;101713.25;5024545;28;45643;-54
2021/06/09 01:30:15;;;;;;;;;13.33;13.33;;;;;25.50;43.61;101709.66;5026603;28;45510;-53
2021/06/09 01:32:42;;;;;;;;;14.67;14.67;;;;;25.49;43.62;101710.59;5014377;28;45323;-51
2021/06/09 01:35:07;;;;;;;;;13.00;13.00;;;;;25.49;43.72;101715.91;5026703;28;45359;-53
2021/06/09 01:37:33;;;;;;;;;15.00;15.00;;;;;25.49;43.42;101710.59;5013785;28;45316;-54
2021/06/09 01:39:59;;;;;;;;;13.33;12.33;;;;;25.48;43.69;101716.84;5020141;28;45313;-52
2021/06/09 01:42:30;;;;;;;;;14.00;13.00;;;;;25.48;43.96;101715.06;5027648;28;45516;-53
2021/06/09 01:44:56;;;;;;;;;13.33;13.33;;;;;25.47;43.77;101716.00;5024410;28;45368;-53
2021/06/09 01:47:22;;;;;;;;;14.67;14.67;;;;;25.47;43.82;101715.13;5022820;28;45410;-53
2021/06/09 01:49:48;;;;;;;;;15.00;14.00;;;;;25.46;43.84;101711.63;5023932;28;45397;-55
2021/06/09 01:52:14;;;;;;;;;17.33;13.33;;;;;25.46;43.85;101711.63;5024380;28;45325;-55
2021/06/09 01:54:40;;;;;;;;;13.67;13.00;;;;;25.46;43.79;101716.94;5024433;28;45336;-55
2021/06/09 01:57:06;;;;;;;;;13.67;13.67;;;;;25.45;43.88;101709.03;5024263;28;46249;-56
2021/06/09 01:59:33;;;;;;;;;13.33;11.33;;;;;25.45;43.70;101707.25;5024067;28;45505;-56
2021/06/09 02:01:59;;;;;;;;;12.00;11.00;;;;;25.44;43.75;101713.50;5022934;28;45236;-56
2021/06/09 02:04:24;;;;;;;;;15.33;13.00;;;;;25.44;43.72;101716.16;5023261;28;45220;-58
2021/06/09 02:06:51;;;;;;;;;14.00;12.67;;;;;25.45;43.86;101709.03;5023484;28;46314;-56
2021/06/09 02:09:17;;;;;;;;;13.67;12.33;;;;;25.44;43.53;101707.28;5023866;28;45385;-57
2021/06/09 02:11:44;;;;;;;;;16.33;14.00;;;;;25.43;43.80;101709.09;5024088;28;45332;-57
2021/06/09 02:14:11;;;;;;;;;12.33;12.33;;;;;25.42;43.72;101705.56;5022853;28;45435;-57
2021/06/09 02:16:41;;;;;;;;;12.00;12.00;;;;;25.42;43.76;101710.03;5023823;28;46449;-57
2021/06/09 02:19:08;;;;;;;;;13.33;13.00;;;;;25.41;43.86;101709.16;5023858;28;45317;-57
2021/06/09 02:21:37;;;;;;;;;13.00;12.00;;;;;25.41;43.98;101709.16;5023804;28;45498;-57
2021/06/09 02:24:04;;;;;;;;;11.00;11.00;;;;;25.41;43.83;101705.63;5022855;28;45513;-57
2021/06/09 02:26:29;;;;;;;;;12.33;11.67;;;;;25.41;43.87;101702.97;5022429;28;46256;-56
2021/06/09 02:28:55;;;;;;;;;12.00;12.00;;;;;25.41;43.81;101700.31;5018653;28;70232;-57
2021/06/09 02:31:20;;;;;;;;;13.33;13.00;;;;;25.40;43.89;101704.78;5015713;28;55366;-57
2021/06/09 02:33:46;;;;;;;;;9.33;8.33;;;;;25.39;43.50;101703.06;5018099;28;49038;-58
2021/06/09 02:36:12;;;;;;;;;12.33;12.00;;;;;25.39;43.96;101702.19;5021086;28;45451;-56
2021/06/09 02:38:40;;;;;;;;;13.67;13.67;;;;;25.38;43.91;101696.03;5020023;28;45448;-57
2021/06/09 02:41:07;;;;;;;;;14.67;13.33;;;;;25.39;43.82;101707.50;5023782;28;45160;-57
2021/06/09 02:43:32;;;;;;;;;14.00;11.00;;;;;25.38;44.01;101700.47;5023400;28;45254;-57
2021/06/09 02:46:25;;;;;;;;;12.67;12.67;;;;;25.38;44.08;101711.09;5022007;28;48125;-55
2021/06/09 02:48:58;;;;;;;;;14.00;12.33;;;;;25.37;44.22;101712.03;5038502;28;45271;-56
2021/06/09 02:51:28;;;;;;;;;9.00;9.00;;;;;25.37;44.03;101707.59;5023220;28;45394;-60
2021/06/09 02:54:07;;;;;;;;;12.00;11.00;;;;;25.36;44.17;101697.91;5023678;28;45481;-58
2021/06/09 02:56:59;;;;;;;;;14.00;13.00;;;;;25.36;44.48;101699.69;5020691;28;46310;-58
2021/06/09 02:59:46;;;;;;;;;13.00;12.00;;;;;25.35;44.51;101701.47;5020033;28;45433;-57
2021/06/09 03:02:23;;;;;;;;;15.00;14.00;;;;;25.36;44.48;101707.66;5023297;28;45442;-58
2021/06/09 03:05:14;;;;;;;;;13.00;13.00;;;;;25.36;44.59;101707.66;5021726;28;45374;-57
2021/06/09 03:07:51;;;;;;;;;11.67;11.00;;;;;25.35;44.50;101708.56;5038180;28;45261;-57
2021/06/09 03:10:25;;;;;;;;;13.33;13.00;;;;;25.33;44.63;101711.31;5021704;28;45437;-58
2021/06/09 03:13:02;;;;;;;;;16.00;14.00;;;;;25.33;44.40;101706.00;5021943;28;45665;-55
2021/06/09 03:15:41;;;;;;;;;13.67;12.67;;;;;25.34;44.47;101713.03;5021871;28;45497;-54
2021/06/09 03:18:12;;;;;;;;;11.33;11.00;;;;;25.34;44.69;101712.16;5021431;28;45261;-55
2021/06/09 03:21:03;;;;;;;;;12.00;12.00;;;;;25.33;44.58;101703.34;5021323;28;45380;-55
2021/06/09 03:23:44;;;;;;;;;12.00;11.33;;;;;25.33;44.59;101695.38;5021811;28;45302;-55
2021/06/09 03:26:26;;;;;;;;;11.33;11.33;;;;;25.34;44.34;101710.38;5022859;28;45296;-55
2021/06/09 03:29:11;;;;;;;;;12.67;12.33;;;;;25.33;44.41;101706.00;5018527;28;46052;-55
2021/06/09 03:31:44;;;;;;;;;12.67;12.67;;;;;25.34;44.53;101714.81;4991395;28;46011;-54
2021/06/09 03:34:18;;;;;;;;;12.67;12.00;;;;;25.33;44.27;101710.47;5017247;28;45284;-55
2021/06/09 03:36:44;;;;;;;;;12.00;12.00;;;;;25.33;43.97;101713.13;5031392;28;45521;-55
2021/06/09 03:39:11;;;;;;;;;11.67;11.67;;;;;25.33;44.08;101710.47;5020443;28;46112;-54
2021/06/09 03:41:40;;;;;;;;;10.67;10.67;;;;;25.32;44.44;101708.75;5021276;28;45356;-55
2021/06/09 03:44:07;;;;;;;;;13.00;13.00;;;;;25.32;44.18;101712.25;5021093;28;45279;-49
2021/06/09 03:46:33;;;;;;;;;11.00;11.00;;;;;25.32;44.44;101716.72;5038440;28;45320;-54
2021/06/09 03:48:59;;;;;;;;;13.00;12.33;;;;;25.32;44.43;101708.75;5021075;28;46025;-53
2021/06/09 03:51:27;;;;;;;;;11.00;10.00;;;;;25.31;44.35;101715.84;5022361;28;45187;-52
2021/06/09 03:53:55;;;;;;;;;14.33;13.00;;;;;25.31;44.53;101710.53;5022395;28;45268;-52
2021/06/09 03:56:22;;;;;;;;;11.00;11.00;;;;;25.32;44.66;101711.41;5022548;28;45492;-52
2021/06/09 03:58:49;;;;;;;;;13.00;12.00;;;;;25.31;44.49;101705.22;5037611;28;45350;-53
2021/06/09 04:01:16;;;;;;;;;11.33;11.33;;;;;25.32;44.26;101706.94;5004469;28;45298;-53
2021/06/09 04:03:42;;;;;;;;;12.33;11.00;;;;;25.31;44.63;101702.56;5021159;28;45330;-52
2021/06/09 04:06:11;;;;;;;;;13.67;13.67;;;;;25.32;44.57;101700.78;5020892;28;45557;-52
2021/06/09 04:08:38;;;;;;;;;13.00;12.33;;;;;25.31;44.55;101713.19;5021505;28;46354;-52
2021/06/09 04:11:04;;;;;;;;;12.33;12.33;;;;;25.31;44.50;101710.53;5020545;28;55669;-52
2021/06/09 04:13:30;;;;;;;;;18.00;15.00;;;;;25.31;44.44;101702.56;5022079;28;45422;-52
2021/06/09 04:15:57;;;;;;;;;10.33;10.33;;;;;25.31;44.21;101707.88;5020820;28;45522;-53
2021/06/09 04:18:22;;;;;;;;;13.33;11.33;;;;;25.31;44.41;101709.69;5020676;28;45321;-55
2021/06/09 04:20:49;;;;;;;;;11.33;11.00;;;;;25.31;44.47;101712.34;5020493;28;45340;-53
2021/06/09 04:23:14;;;;;;;;;11.33;11.33;;;;;25.31;44.48;101715.84;5022388;28;45476;-53
2021/06/09 04:25:39;;;;;;;;;10.00;10.00;;;;;25.31;44.26;101713.19;5021630;28;52191;-55
2021/06/09 04:28:06;;;;;;;;;11.33;11.33;;;;;25.31;44.49;101713.19;5016908;28;64224;-54
2021/06/09 04:30:32;;;;;;;;;13.00;10.33;;;;;25.30;44.45;101713.28;5035779;28;45466;-54
2021/06/09 04:33:03;;;;;;;;;11.67;11.67;;;;;25.30;44.22;101706.16;5009944;28;45244;-54
2021/06/09 04:35:36;;;;;;;;;12.67;11.67;;;;;25.31;44.34;101709.69;5020443;28;45352;-55
2021/06/09 04:38:01;;;;;;;;;15.00;13.00;;;;;25.29;44.34;101707.09;5002921;28;47237;-55
2021/06/09 04:40:28;;;;;;;;;11.00;10.00;;;;;25.30;44.14;101713.28;5017961;28;45252;-53
2021/06/09 04:42:55;;;;;;;;;10.33;9.33;;;;;25.30;44.24;101708.81;5020412;28;45337;-52
2021/06/09 04:45:23;;;;;;;;;10.67;10.67;;;;;25.30;44.48;101713.28;5021713;28;45186;-53
2021/06/09 04:47:48;;;;;;;;;12.33;11.00;;;;;25.30;44.80;101715.94;5021320;28;45722;-53
2021/06/09 04:50:18;;;;;;;;;10.33;10.33;;;;;25.30;44.39;101719.44;5019822;28;45205;-50
2021/06/09 04:52:44;;;;;;;;;13.00;12.00;;;;;25.29;44.44;101717.72;5020472;28;45492;-49
2021/06/09 04:55:10;;;;;;;;;11.00;10.67;;;;;25.26;43.51;101724.03;5021501;28;45303;-57
2021/06/09 04:57:36;;;;;;;;;13.67;13.00;;;;;25.15;42.95;101722.84;5019804;28;46674;-58
2021/06/09 05:00:08;;;;;;;;;15.67;14.67;;;;;24.97;42.75;101722.78;5036366;28;46047;-59
2021/06/09 05:02:33;;;;;;;;;15.00;13.67;;;;;24.79;43.00;101722.72;5021599;28;45331;-58
2021/06/09 05:04:59;;;;;;;;;14.00;14.00;;;;;24.62;42.86;101723.44;5019906;28;45585;-58
2021/06/09 05:07:24;;;;;;;;;17.33;17.33;;;;;24.52;43.23;101724.81;5003441;28;49705;-58
2021/06/09 05:09:50;;;;;;;;;16.33;16.00;;;;;24.42;42.88;101723.50;5021190;28;45359;-57
2021/06/09 05:12:21;;;;;;;;;15.33;13.67;;;;;24.30;43.38;101728.41;5019522;28;60226;-58
2021/06/09 05:14:53;;;;;;;;;16.33;14.67;;;;;24.18;43.19;101723.66;5036755;28;45471;-58
2021/06/09 05:17:21;;;;;;;;;18.33;18.33;;;;;24.08;43.46;101720.53;5019826;28;46322;-58
2021/06/09 05:19:48;;;;;;;;;18.00;18.00;;;;;24.01;43.89;101729.69;5021124;28;45355;-57
2021/06/09 05:22:20;;;;;;;;;15.00;14.67;;;;;23.90;44.04;101735.41;5023332;28;45364;-60
2021/06/09 05:24:46;;;;;;;;;16.00;15.33;;;;;23.80;44.55;101734.94;5023358;28;45449;-58
2021/06/09 05:27:13;;;;;;;;;21.67;18.33;;;;;23.81;44.55;101735.81;5020610;28;46132;-59
2021/06/09 05:29:38;;;;;;;;;12.00;11.67;;;;;23.81;44.44;101736.66;5011372;28;45443;-59
2021/06/09 05:32:05;;;;;;;;;16.00;16.00;;;;;23.83;44.57;101736.59;4990322;28;45292;-59
2021/06/09 05:34:33;;;;;;;;;12.33;12.00;;;;;23.84;44.89;101733.00;5023314;28;45330;-59
2021/06/09 05:36:59;;;;;;;;;16.67;16.67;;;;;23.84;44.98;101731.25;5015460;28;45243;-59
2021/06/09 05:39:24;;;;;;;;;18.33;17.33;;;;;23.82;44.46;101730.44;5011767;28;45433;-58
2021/06/09 05:41:50;;;;;;;;;19.00;19.00;;;;;23.78;44.93;101731.50;5023273;28;45290;-58
2021/06/09 05:44:16;;;;;;;;;19.67;19.67;;;;;23.78;45.11;101731.50;5022292;28;62657;-57
2021/06/09 05:46:43;;;;;;;;;20.67;19.33;;;;;23.71;44.86;101735.34;5024166;28;46166;-58
2021/06/09 05:49:17;;;;;;;;;19.33;18.00;;;;;23.60;44.47;101739.28;5024230;28;45361;-58
2021/06/09 05:51:43;;;;;;;;;20.00;19.00;;;;;23.52;45.21;101741.38;5024027;28;45330;-58
2021/06/09 05:54:08;;;;;;;;;22.00;20.67;;;;;23.47;44.91;101739.84;5022650;28;52642;-58
2021/06/09 05:56:33;;;;;;;;;19.33;18.00;;;;;23.45;45.00;101737.25;5039272;28;47099;-58
2021/06/09 05:58:59;;;;;;;;;21.00;19.33;;;;;23.46;45.31;101738.13;5023561;28;57380;-58
2021/06/09 06:01:24;;;;;;;;;21.67;20.67;;;;;23.47;44.82;101732.75;5024124;28;45459;-58
2021/06/09 06:03:51;;;;;;;;;19.67;19.00;;;;;23.42;45.18;101732.09;5022283;28;62040;-58
2021/06/09 06:06:17;;;;;;;;;24.00;21.67;;;;;23.37;45.52;101732.25;5022684;28;72100;-58
2021/06/09 06:08:43;;;;;;;;;21.33;19.67;;;;;23.36;45.36;101732.31;5022530;28;45273;-59
2021/06/09 06:11:13;;;;;;;;;16.33;16.33;;;;;23.37;45.31;101734.91;5022386;28;45465;-61
2021/06/09 06:13:41;;;;;;;;;21.67;17.00;;;;;23.39;45.58;101733.06;5024084;28;45306;-59
2021/06/09 06:16:06;;;;;;;;;22.67;21.33;;;;;23.40;45.25;101733.94;5005659;28;47313;-60
2021/06/09 06:18:37;;;;;;;;;22.33;22.33;;;;;23.40;45.63;101733.94;5038997;28;48258;-59
2021/06/09 06:21:04;;;;;;;;;20.00;18.67;;;;;23.41;45.35;101739.16;5023541;28;45318;-59
2021/06/09 06:23:30;;;;;;;;;31.00;27.33;;;;;23.41;45.64;101738.31;5023840;28;45346;-60
2021/06/09 06:25:56;;;;;;;;;26.33;21.33;;;;;23.40;45.28;101733.94;5038478;28;46167;-60
2021/06/09 06:28:22;;;;;;;;;27.75;27.50;;;;;23.39;45.30;101738.34;5036113;28;45477;-61
2021/06/09 06:30:48;;;;;;;;;22.67;22.67;;;;;23.39;45.35;101727.75;5018564;28;45253;-60
2021/06/09 06:33:15;;;;;;;;;24.25;24.25;;;;;23.40;45.80;101736.59;5012707;28;45232;-59
2021/06/09 06:35:41;;;;;;;;;26.25;24.75;;;;;23.46;45.66;101740.78;5021570;28;48254;-59
2021/06/09 06:38:07;;;;;;;;;19.00;17.33;;;;;23.46;45.23;101740.78;5020463;28;45392;-59
2021/06/09 06:40:33;;;;;;;;;23.33;21.67;;;;;23.50;45.19;101742.38;5019025;28;45442;-59
2021/06/09 06:42:59;;;;;;;;;29.00;26.75;;;;;23.51;45.06;101744.09;5023537;28;45418;-60
2021/06/09 06:45:25;;;;;;;;;25.50;25.00;;;;;23.52;45.52;101737.88;5014061;28;46120;-59
2021/06/09 06:47:52;;;;;;;;;29.25;25.75;;;;;23.51;45.91;101739.66;5022835;28;45522;-60
2021/06/09 06:50:19;;;;;;;;;30.00;26.00;;;;;23.49;45.09;101730.91;5021178;28;45447;-59
2021/06/09 06:52:45;;;;;;;;;29.75;24.50;;;;;23.49;45.89;101736.19;5005404;28;45257;-59
2021/06/09 06:55:11;;;;;;;;;32.00;29.75;;;;;23.49;45.63;101728.25;5022543;28;45882;-59
2021/06/09 06:57:37;;;;;;;;;31.75;29.50;;;;;23.49;45.53;101738.84;5022837;28;45712;-59
2021/06/09 07:00:18;;;;;;;;;41.50;32.50;;;;;23.49;45.75;101738.84;5022643;28;45390;-59
2021/06/09 07:02:58;;;;;;;;;34.50;30.50;;;;;23.47;46.02;101738.03;5005550;28;45476;-59
2021/06/09 07:05:25;;;;;;;;;31.50;29.25;;;;;23.45;45.73;101739.91;5021372;28;45311;-59
2021/06/09 07:07:55;;;;;;;;;32.00;27.50;;;;;23.48;45.39;101747.72;5021333;28;45292;-60
2021/06/09 07:10:21;;;;;;;;;37.50;33.75;;;;;23.48;45.99;101744.22;5021406;28;45394;-59
2021/06/09 07:12:46;;;;;;;;;33.00;30.50;;;;;23.50;45.61;101742.38;5023030;28;45386;-59
2021/06/09 07:15:14;;;;;;;;;28.75;26.00;;;;;23.56;45.63;101743.00;5021351;28;45547;-59
2021/06/09 07:17:51;;;;;;;;;30.25;27.50;;;;;23.58;45.84;101742.91;5021015;28;45380;-59
2021/06/09 07:20:20;;;;;;;;;34.75;32.75;;;;;23.57;45.74;101738.53;5020920;28;45411;-60
2021/06/09 07:22:46;;;;;;;;;34.25;31.25;;;;;23.56;45.88;101739.47;5004814;28;45471;-60
2021/06/09 07:25:12;;;;;;;;;31.75;30.75;;;;;23.55;46.05;101735.97;5021357;28;45426;-59
2021/06/09 07:27:48;;;;;;;;;41.25;35.00;;;;;23.54;45.38;101738.66;5000405;28;45673;-59
2021/06/09 07:30:15;;;;;;;;;40.25;35.00;;;;;23.53;46.16;101751.06;5022270;28;45438;-60
2021/06/09 07:32:42;;;;;;;;;41.50;35.25;;;;;23.53;46.08;101742.22;5007824;28;45290;-58
2021/06/09 07:35:10;;;;;;;;;41.25;33.50;;;;;23.53;45.79;101751.06;5021971;28;46043;-59
2021/06/09 07:37:40;;;;;;;;;38.75;34.50;;;;;23.52;46.20;101743.19;5013139;28;45338;-59
2021/06/09 07:40:07;;;;;;;;;41.75;34.50;;;;;23.53;45.92;101742.22;5021051;28;45389;-59
2021/06/09 07:42:34;;;;;;;;;23.67;22.00;;;;;23.60;45.58;101739.28;5020563;28;45293;-59
2021/06/09 07:45:06;;;;;;;;;34.00;31.50;;;;;23.68;45.75;101738.94;5020596;28;45374;-60
2021/06/09 07:47:32;;;;;;;;;39.25;33.25;;;;;23.71;45.45;101737.97;5021206;28;45211;-60
2021/06/09 07:49:58;;;;;;;;;32.50;31.00;;;;;23.74;45.66;101745.81;5021443;28;51400;-60
2021/06/09 07:52:26;;;;;;;;;33.00;30.25;;;;;23.75;45.47;101742.22;5021101;28;45592;-60
2021/06/09 07:54:53;;;;;;;;;33.75;29.75;;;;;23.81;45.71;101744.63;5022092;28;45404;-61
2021/06/09 07:57:19;;;;;;;;;34.75;32.00;;;;;23.83;45.34;101736.59;5004532;28;45488;-59
2021/06/09 07:59:44;;;;;;;;;29.33;29.33;;;;;23.85;46.05;101748.00;5021986;28;45486;-59
2021/06/09 08:02:12;;;;;;;;;31.50;30.00;;;;;23.85;46.00;101743.56;5020619;28;45550;-60
2021/06/09 08:04:38;;;;;;;;;30.25;29.75;;;;;23.87;45.26;101747.03;5020355;28;46055;-59
2021/06/09 08:07:04;;;;;;;;;23.33;23.33;;;;;23.87;45.54;101744.38;5020723;28;45372;-60
2021/06/09 08:09:30;;;;;;;;;27.33;24.67;;;;;23.90;45.13;101746.03;5020852;28;45322;-60
2021/06/09 08:11:57;;;;;;;;;27.00;27.00;;;;;23.95;45.00;101749.34;5022415;28;45336;-61
2021/06/09 08:14:22;;;;;;;;;23.67;23.00;;;;;24.00;45.03;101746.53;5020024;28;47116;-60
2021/06/09 08:16:48;;;;;;;;;21.33;20.00;;;;;24.04;44.84;101748.13;5019682;28;62228;-60
2021/06/09 08:19:14;;;;;;;;;24.00;22.67;;;;;24.09;45.04;101746.13;5021624;28;45321;-60
2021/06/09 08:21:39;;;;;;;;;25.33;23.00;;;;;24.12;45.34;101747.81;5003653;28;45331;-61
2021/06/09 08:24:05;;;;;;;;;24.33;21.67;;;;;24.16;44.54;101742.28;5020050;28;51627;-61
2021/06/09 08:26:31;;;;;;;;;24.67;22.33;;;;;24.17;45.12;101743.13;5020410;28;45362;-61
2021/06/09 08:28:57;;;;;;;;;20.67;19.33;;;;;24.18;45.09;101743.09;5017054;28;45348;-61
2021/06/09 08:31:25;;;;;;;;;24.67;24.00;;;;;24.18;44.84;101742.22;4995702;28;45315;-61
2021/06/09 08:33:53;;;;;;;;;24.00;22.33;;;;;24.18;44.97;101737.78;5016281;28;47186;-59
2021/06/09 08:36:20;;;;;;;;;19.33;19.33;;;;;24.19;45.00;101736.88;5017408;28;45410;-60
2021/06/09 08:38:49;;;;;;;;;22.00;20.00;;;;;24.24;44.14;101736.66;5003191;28;45605;-60
2021/06/09 08:41:15;;;;;;;;;18.33;17.67;;;;;24.25;44.20;101729.53;5004469;28;45637;-59
2021/06/09 08:43:41;;;;;;;;;20.00;20.00;;;;;24.24;43.88;101734.00;5003374;28;46584;-60
2021/06/09 08:46:09;;;;;;;;;16.33;16.33;;;;;24.21;42.34;101728.81;5021311;28;45426;-60
2021/06/09 08:48:36;;;;;;;;;13.00;13.00;;;;;24.18;42.77;101731.59;5019833;28;45349;-60
2021/06/09 08:51:03;;;;;;;;;18.67;17.67;;;;;24.20;43.13;101735.91;5020191;28;45272;-60
2021/06/09 08:53:29;;;;;;;;;15.33;14.67;;;;;24.24;43.79;101731.34;5020769;28;46538;-60
2021/06/09 08:55:55;;;;;;;;;17.00;15.00;;;;;24.30;43.63;101733.72;5023634;28;45419;-59
2021/06/09 08:58:21;;;;;;;;;12.33;11.67;;;;;24.36;43.09;101732.56;5024688;28;45291;-60
2021/06/09 09:00:46;;;;;;;;;14.67;14.67;;;;;24.40;43.12;101730.66;5040419;28;45507;-60
2021/06/09 09:03:12;;;;;;;;;13.00;12.00;;;;;24.45;41.59;101741.91;5023377;28;46225;-60
2021/06/09 09:05:38;;;;;;;;;13.33;11.00;;;;;24.46;42.32;101735.69;5024814;28;45366;-60
2021/06/09 09:08:04;;;;;;;;;18.00;17.00;;;;;24.50;42.30;101745.25;5024343;28;45272;-60
2021/06/09 09:10:30;;;;;;;;;13.33;13.00;;;;;24.54;42.43;101749.50;5024938;28;45476;-60
2021/06/09 09:12:56;;;;;;;;;15.00;15.00;;;;;24.58;41.96;101748.41;5024338;28;45681;-60
2021/06/09 09:15:22;;;;;;;;;15.00;15.00;;;;;24.58;41.98;101750.19;5023416;28;45264;-61
2021/06/09 09:17:49;;;;;;;;;13.67;11.00;;;;;24.59;42.42;101747.47;5024537;28;45197;-60
2021/06/09 09:20:22;;;;;;;;;13.33;13.00;;;;;24.62;42.06;101744.69;5024338;28;45680;-60
2021/06/09 09:22:49;;;;;;;;;11.00;9.33;;;;;24.64;41.52;101742.81;5023744;28;46171;-60
2021/06/09 09:25:17;;;;;;;;;11.33;11.33;;;;;24.68;42.14;101748.84;5000114;28;45450;-66
2021/06/09 09:27:56;;;;;;;;;12.67;11.67;;;;;24.72;42.23;101749.63;5015597;28;45300;-64
2021/06/09 09:30:23;;;;;;;;;13.33;13.33;;;;;24.75;42.27;101750.34;5009346;28;45664;-66
2021/06/09 09:33:08;;;;;;;;;14.33;13.00;;;;;24.79;42.83;101756.34;4993055;28;46233;-68
2021/06/09 09:35:38;;;;;;;;;11.67;11.67;;;;;24.83;42.38;101755.28;5001995;28;45399;-66
2021/06/09 09:38:13;;;;;;;;;11.00;10.33;;;;;24.86;42.14;101755.16;5004065;28;45377;-66
2021/06/09 09:40:39;;;;;;;;;12.00;12.00;;;;;24.88;42.40;101758.56;5022066;28;45412;-67
2021/06/09 09:43:05;;;;;;;;;12.33;12.33;;;;;24.91;42.40;101766.41;5021338;28;46164;-67
2021/06/09 09:45:35;;;;;;;;;11.00;11.00;;;;;24.94;42.38;101768.91;5020506;28;45407;-67
2021/06/09 09:48:03;;;;;;;;;12.33;11.00;;;;;24.98;42.16;101760.81;5021583;28;45402;-67
2021/06/09 09:50:30;;;;;;;;;12.00;11.00;;;;;24.99;42.21;101758.06;5020450;28;45808;-66
2021/06/09 09:52:55;;;;;;;;;9.33;9.33;;;;;25.01;41.97;101761.53;5022364;28;46143;-66
2021/06/09 09:55:21;;;;;;;;;11.33;11.00;;;;;25.02;41.85;101759.75;5023787;28;45388;-66
2021/06/09 09:57:46;;;;;;;;;9.67;9.67;;;;;25.04;41.84;101760.50;5023902;28;45241;-66
2021/06/09 10:00:12;;;;;;;;;11.00;11.00;;;;;25.06;42.03;101748.03;5022060;28;56868;-65
2021/06/09 10:02:39;;;;;;;;;10.00;10.00;;;;;25.07;42.26;101749.75;5023185;28;46606;-66
2021/06/09 10:05:12;;;;;;;;;10.00;10.00;;;;;25.09;41.75;101751.44;5023613;28;45331;-66
2021/06/09 10:07:39;;;;;;;;;8.33;8.33;;;;;25.09;42.21;101748.78;5021643;28;45277;-66
2021/06/09 10:10:06;;;;;;;;;12.00;11.00;;;;;25.12;41.79;101753.06;5022789;28;45512;-67
2021/06/09 10:12:31;;;;;;;;;10.00;10.00;;;;;25.13;41.97;101749.47;5023403;28;46234;-66
2021/06/09 10:14:58;;;;;;;;;10.67;9.67;;;;;25.15;42.19;101760.00;5021957;28;50992;-66
2021/06/09 10:17:28;;;;;;;;;10.00;10.00;;;;;25.16;41.89;101751.13;5022280;28;45376;-65
2021/06/09 10:19:54;;;;;;;;;9.00;9.00;;;;;25.17;41.94;101750.19;5022261;28;45543;-67
2021/06/09 10:22:23;;;;;;;;;10.00;10.00;;;;;25.18;41.87;101752.78;5023311;28;45343;-66
2021/06/09 10:24:52;;;;;;;;;11.00;11.00;;;;;25.19;41.89;101753.63;5022130;28;45394;-66
2021/06/09 10:27:20;;;;;;;;;9.00;9.00;;;;;25.20;41.62;101744.72;5017561;28;45415;-66
2021/06/09 10:29:46;;;;;;;;;9.67;8.67;;;;;25.21;41.79;101757.94;5014366;28;45269;-67
2021/06/09 10:32:16;;;;;;;;;11.00;9.00;;;;;25.22;41.66;101751.69;5009562;28;50772;-66
2021/06/09 10:34:42;;;;;;;;;12.00;12.00;;;;;25.24;41.53;101755.13;5023061;28;45290;-67
2021/06/09 10:37:09;;;;;;;;;10.67;9.33;;;;;25.26;41.67;101755.03;4995480;28;45340;-66
2021/06/09 10:39:37;;;;;;;;;11.33;11.00;;;;;25.26;41.15;101747.94;5012952;28;45567;-66
2021/06/09 10:42:06;;;;;;;;;11.00;11.00;;;;;25.27;41.54;101747.03;5021740;28;46361;-64
2021/06/09 10:44:35;;;;;;;;;9.33;9.33;;;;;25.29;41.95;101740.78;5022955;28;45469;-66
2021/06/09 10:47:03;;;;;;;;;10.33;10.33;;;;;25.29;41.59;101743.44;5038633;28;45589;-67
2021/06/09 10:49:35;;;;;;;;;10.00;8.00;;;;;25.30;41.68;101737.19;5023282;28;45504;-66
2021/06/09 10:52:02;;;;;;;;;8.00;8.00;;;;;25.31;41.60;101737.09;5037992;28;46966;-63
2021/06/09 10:54:27;;;;;;;;;8.00;8.00;;;;;25.32;41.56;101737.97;5021683;28;45320;-65
2021/06/09 10:56:55;;;;;;;;;12.00;12.00;;;;;25.33;41.93;101731.72;5023040;28;45355;-65
2021/06/09 10:59:24;;;;;;;;;44.75;36.75;;;;;25.35;41.78;101748.44;5007167;28;45516;-65
2021/06/09 11:01:51;;;;;;;;;67.00;53.50;;;;;25.36;42.07;101743.06;5006135;28;47247;-65
2021/06/09 11:04:17;;;;;;;;;74.25;64.75;;;;;25.38;41.92;101740.31;5000806;28;45458;-66
2021/06/09 11:06:46;;;;;;;;;72.75;64.75;;;;;25.38;42.15;101737.66;5016239;28;45436;-66
2021/06/09 11:09:18;;;;;;;;;68.75;53.25;;;;;25.39;42.07;101736.72;5005074;28;45475;-65
2021/06/09 11:11:45;;;;;;;;;58.25;46.75;;;;;25.40;42.13;101731.34;5006756;28;46086;-64
2021/06/09 11:14:24;;;;;;;;;51.00;42.75;;;;;25.41;42.05;101725.09;5012486;28;45367;-66